KPIA/PIA METAR and TAF weather

Enter ICAO airport designator
Station Type Date Time Source
KPIA METAR 2023/05/31 23:54 UTC NOAA

KPIA 312354Z 11006KT 10SM CLR 29/15 A2993 RMK AO2 SLP130 T02940150 10328 20294 55006


Station Type Date Time Source
KPIA Decoded METAR 2023/05/31 23:54 UTC NOAA

GREATER PEORIA REGIONAL AIRPORT , IL, United States (KPIA) 40-40N 89-41W 205M
May 31, 2023 - 07:54 PM EDT / 2023.05.31 2354 UTC
Wind: from the ESE (110 degrees) at 7 MPH (6 KT):0
Visibility: 10 mile(s):0
Sky conditions: clear
Temperature: 84.9 F (29.4 C)
Dew Point: 59.0 F (15.0 C)
Relative Humidity: 41%
Pressure (altimeter): 29.93 in. Hg (1013 hPa)
Pressure tendency: 0.02 inches (0.6 hPa) lower than three hours ago
ob: KPIA 312354Z 11006KT 10SM CLR 29/15 A2993 RMK AO2 SLP130 T02940150 10328 20294 55006
cycle: 0

Station Type Date Time Source
KPIA TAF 2023/05/31 18:30 UTC NOAA

TAF KPIA 311728Z 3118/0118 17006KT P6SM SCT050 BKN250
FM010100 15005KT P6SM BKN250

Example: see airport list